Welcome to our Virtual Airline
Sign-in:

Flight MFC51961

  • Submitted By: Karl-Heinz Klotz
  • Departure Airport: Minchumina (PAMH)
  • Arrival Airport: Summit (UMM)
  • Aircraft: PIPER J-3 (N004MM-SK)
  • Flight Time: 01.54.18
  • Date Submitted: 19/05/29
  • Route: STOP-OVER AT 1. STAMPEDE (Z90), 2. HEALY RIVER (PAHV-HRR), 3. DENALI (AK06)
  • Status: Accepted
Flight Details
Gross Revenue:
(6 load / $ 128.00 per unit
$ 768.00
Fuel Cost:
(60.7814 fuel used @ 5.1 / unit)
$ 309.99

Additional Log Information:

View Log

FS[19:15] ----- Flight Opened -----
FS[19:15] Cigar Box - 1.1.4.0
FS[19:15] FS: Prepar3D V4
FS[19:15] FSUIPC: v5,15
FS[19:15] Flight Number: MFC51961
FS[19:15] FS Aircraft: Islander 08
FS[19:15] FS Model: BN2B20
FS[19:15] FS Type: BRITTENNORMAN
FS[19:15] Departure: PAMH
FS[19:15] Arrival: UMM
FS[19:15] Flight Level: 7500
FS[19:15] Flight Type: H
FS[19:15] Passengers: 6
FS[19:15] FOB: 280 lbs
FS[19:15] Gate: n/a
FS[19:15] NOTE: Parking Brake Ignored
FS[19:15] Crash Detection: Disabled
FS[19:15] Engines: 2 Piston
FS[19:15] NOTE: Boarding has started
FS[19:15] Autopilot: Engaged
FS[19:15] AGL: 4 ft
FS[19:15] AMSL: 679 ft
FS[19:15] Engine 1: Started
FS[19:15] Engine 2: Started
FS[19:15] Main Door Closed
FS[19:15] COM1: 128.30
FS[19:15] COM2: 127.80
FS[19:15] Transponder: 1200
FS[19:15] NAV1: 113.70
FS[19:15] NAV2: 113.70
FS[19:15] ADF1: 991.0
FS[19:15] ADF2: 240.0
FS[19:15] Navigation Mode: NAV
FS[19:15] NOTE: Taxi started
FS[19:16] NOTE: ----- TAKE OFF -----
FS[19:16] GS: 48 knots
FS[19:16] TAS: 49 knots
FS[19:16] IAS: 49 knots
FS[19:16] VS: 6 fpm
FS[19:16] FOB: 279 lbs
FS[19:16] Heading: 222°
FS[19:16] Pitch: 0°
FS[19:16] Bank: 0°
FS[19:16] Aircraft Weight: 5491,42 lbs
FS[19:16] Nearest Airport: PAMH
FS[19:16] Distance: 0,32 miles
FS[19:16] Runway: ???
FS[19:16] Ground Surface: Gravel
FS[19:16] Ground Condition: Normal
FS[19:16] NOTE: Weather Report
FS[19:16] Wind Heading: 344°
FS[19:16] Wind Speed: 0 knots
FS[19:16] OAT: 13° C
FS[19:16] TAT: 13° C
FS[19:16] Precipitation: None
FS[19:16] Dew Point: 3° C
FS[19:16] Visibility: 62 miles
FS[19:16] METAR: PAMH 291156Z AUTO 00000KT 10SM FEW085 07/06 A2998 RMK AO2 SLP907 T00720056 10133 20067 56001
FS[19:16] NOTE: Climb started
FS[19:16] View Mode: Virtual Cockpit
FS[19:18] Recovery: Flight Saved
FS[19:21] Recovery: Flight Saved
FS[19:23] Recovery: Flight Saved
FS[19:26] Recovery: Flight Saved
FS[19:28] Recovery: Flight Saved
FS[19:31] Recovery: Flight Saved
FS[19:33] Recovery: Flight Saved
FS[19:36] Recovery: Flight Saved
FS[19:38] Recovery: Flight Saved
FS[19:41] Recovery: Flight Saved
FS[19:43] Recovery: Flight Saved
FS[19:46] Recovery: Flight Saved
FS[19:49] Recovery: Flight Saved
FS[19:51] Recovery: Flight Saved
FS[19:54] Recovery: Flight Saved
FS[19:56] Flaps: Position 1
FS[19:56] GS: 81 knots
FS[19:56] TAS: 83 knots
FS[19:56] IAS: 80 knots
FS[19:56] VS: -719 fpm
FS[19:56] Flaps: Position 2
FS[19:56] GS: 73 knots
FS[19:56] TAS: 75 knots
FS[19:56] IAS: 73 knots
FS[19:56] VS: -722 fpm
FS[19:57] NOTE: ----- LANDED -----
FS[19:57] Landing Rate: -148,41 fpm
FS[19:57] GS: 52 knots
FS[19:57] TAS: 53 knots
FS[19:57] IAS: 52 knots
FS[19:57] VS: -146 fpm
FS[19:57] FOB: 226 lbs
FS[19:57] Heading: 159°
FS[19:57] Pitch: 3°
FS[19:57] Bank: 0°
FS[19:57] Aircraft Weight: 5438,91 lbs
FS[19:57] Nearest Airport: Z90
FS[19:57] Distance: 0,08 miles
FS[19:57] Runway: 15 - Z90
FS[19:57] Ground Surface: Grass
FS[19:57] Ground Condition: Normal
FS[19:57] NOTE: Weather Report
FS[19:57] Wind Heading: 343°
FS[19:57] Wind Speed: 0 knots
FS[19:57] OAT: 11° C
FS[19:57] TAT: 11° C
FS[19:57] Precipitation: None
FS[19:57] Dew Point: 1° C
FS[19:57] Visibility: 62 miles
FS[19:57] METAR: UMMG 291230Z 34008G11MPS 9999 BKN009 OVC066 12/11 Q1013 R35/190065 NOSIGUMMS 291230Z 20005MPS CAVOK 22/16 Q1010 R88/CLRD// NOSIG
FS[19:57] View Mode: Virtual Cockpit
FS[19:57] NOTE: Taxi started
FS[19:58] FS: Paused
FS[08:58] FS: Unpaused
FS[08:59] Flaps: Position 1
FS[08:59] Flaps: Position 0
FS[09:00] View Mode: Virtual Cockpit
FS[09:01] Recovery: Flight Saved
FS[09:04] Recovery: Flight Saved
FS[09:06] Recovery: Flight Saved
FS[09:09] Recovery: Flight Saved
FS[09:11] Recovery: Flight Saved
FS[09:14] Recovery: Flight Saved
FS[09:16] Recovery: Flight Saved
FS[09:19] Recovery: Flight Saved
FS[09:21] Recovery: Flight Saved
FS[09:24] Recovery: Flight Saved
FS[09:26] Recovery: Flight Saved
FS[09:29] Recovery: Flight Saved
FS[09:29] Flaps: Position 1
FS[09:29] GS: 81 knots
FS[09:29] TAS: 83 knots
FS[09:29] IAS: 80 knots
FS[09:29] VS: -767 fpm
FS[09:29] Flaps: Position 2
FS[09:29] GS: 75 knots
FS[09:29] TAS: 76 knots
FS[09:29] IAS: 73 knots
FS[09:29] VS: -734 fpm
FS[09:32] NOTE: ----- LANDED -----
FS[09:32] Landing Rate: -61,52 fpm
FS[09:32] GS: 54 knots
FS[09:32] TAS: 55 knots
FS[09:32] IAS: 54 knots
FS[09:32] VS: -59 fpm
FS[09:32] FOB: 190 lbs
FS[09:32] Heading: 161°
FS[09:32] Pitch: 4°
FS[09:32] Bank: 0°
FS[09:32] Aircraft Weight: 5402,13 lbs
FS[09:32] Nearest Airport: PAHV
FS[09:32] Distance: 0,10 miles
FS[09:32] Runway: 15 - HRR
FS[09:32] Ground Surface: Asphalt
FS[09:32] Ground Condition: Normal
FS[09:32] NOTE: Weather Report
FS[09:32] Wind Heading: 343°
FS[09:32] Wind Speed: 0 knots
FS[09:32] OAT: 12° C
FS[09:32] TAT: 12° C
FS[09:32] Precipitation: None
FS[09:32] Dew Point: 2° C
FS[09:32] Visibility: 62 miles
FS[09:32] METAR: UMMG 291230Z 34008G11MPS 9999 BKN009 OVC066 12/11 Q1013 R35/190065 NOSIGUMMS 291230Z 20005MPS CAVOK 22/16 Q1010 R88/CLRD// NOSIG
FS[09:32] View Mode: Virtual Cockpit
FS[09:33] Flaps: Position 1
FS[09:34] View Mode: Virtual Cockpit
FS[09:36] Recovery: Flight Saved
FS[09:38] Recovery: Flight Saved
FS[09:41] Recovery: Flight Saved
FS[09:43] Flaps: Position 2
FS[09:43] GS: 73 knots
FS[09:43] TAS: 75 knots
FS[09:43] IAS: 73 knots
FS[09:43] VS: -147 fpm
FS[09:45] NOTE: ----- LANDED -----
FS[09:45] Landing Rate: -40,75 fpm
FS[09:45] GS: 56 knots
FS[09:45] TAS: 56 knots
FS[09:45] IAS: 54 knots
FS[09:45] VS: -38 fpm
FS[09:45] FOB: 173 lbs
FS[09:45] Heading: 131°
FS[09:45] Pitch: 3°
FS[09:45] Bank: 0°
FS[09:45] Aircraft Weight: 5385,23 lbs
FS[09:45] Nearest Airport: AK06
FS[09:45] Distance: 0,12 miles
FS[09:45] Runway: 12 - AK06
FS[09:45] Ground Surface: Gravel
FS[09:45] Ground Condition: Normal
FS[09:45] NOTE: Weather Report
FS[09:45] Wind Heading: 342°
FS[09:45] Wind Speed: 0 knots
FS[09:45] OAT: 11° C
FS[09:45] TAT: 11° C
FS[09:45] Precipitation: None
FS[09:45] Dew Point: 1° C
FS[09:45] Visibility: 62 miles
FS[09:45] METAR: UMMG 291230Z 34008G11MPS 9999 BKN009 OVC066 12/11 Q1013 R35/190065 NOSIGUMMS 291230Z 20005MPS CAVOK 22/16 Q1010 R88/CLRD// NOSIG
FS[09:45] View Mode: Virtual Cockpit
FS[09:46] Flaps: Position 1
FS[09:46] Flaps: Position 0
FS[09:47] View Mode: Virtual Cockpit
FS[09:49] Recovery: Flight Saved
FS[09:51] Recovery: Flight Saved
FS[09:54] Recovery: Flight Saved
FS[09:56] Recovery: Flight Saved
FS[09:59] Recovery: Flight Saved
FS[10:01] Recovery: Flight Saved
FS[10:04] Recovery: Flight Saved
FS[10:06] Flaps: Position 1
FS[10:06] GS: 75 knots
FS[10:06] TAS: 76 knots
FS[10:06] IAS: 72 knots
FS[10:06] VS: -423 fpm
FS[10:07] Flaps: Position 2
FS[10:07] GS: 68 knots
FS[10:07] TAS: 69 knots
FS[10:07] IAS: 66 knots
FS[10:07] VS: -119 fpm
FS[10:09] NOTE: ----- LANDED -----
FS[10:09] Landing Rate: -59,21 fpm
FS[10:09] GS: 48 knots
FS[10:09] TAS: 49 knots
FS[10:09] IAS: 47 knots
FS[10:09] VS: -59 fpm
FS[10:09] FOB: 147 lbs
FS[10:09] Heading: 220°
FS[10:09] Pitch: 6°
FS[10:09] Bank: 0°
FS[10:09] Aircraft Weight: 5359,23 lbs
FS[10:09] Nearest Airport: UMM
FS[10:09] Distance: 0,03 miles
FS[10:09] Runway: 21 - UMM
FS[10:09] Ground Surface: Gravel
FS[10:09] Ground Condition: Normal
FS[10:09] NOTE: Weather Report
FS[10:09] Wind Heading: 343°
FS[10:09] Wind Speed: 0 knots
FS[10:09] OAT: 10° C
FS[10:09] TAT: 10° C
FS[10:09] Precipitation: None
FS[10:09] Dew Point: 0° C
FS[10:09] Visibility: 62 miles
FS[10:09] METAR: UMMG 291230Z 34008G11MPS 9999 BKN009 OVC066 12/11 Q1013 R35/190065 NOSIGUMMS 291230Z 20005MPS CAVOK 22/16 Q1010 R88/CLRD// NOSIG
FS[10:09] View Mode: Virtual Cockpit
FS[10:10] Gate: n/a
FS[10:10] NOTE: Flight Completed
FS[10:10] FS Aircraft: Islander 08
FS[10:10] FS Model: BN2B20
FS[10:10] FS Type: BRITTENNORMAN
FS[10:10] FOB: 146 lbs
FS[10:10] Fuel Used: 134 lbs
FS[10:10] Flight Time: 01:54:18
FS[10:10] Flight Time (Dawn): 00:00:00
FS[10:10] Flight Time (Day): 01:54:18
FS[10:10] Flight Time (Dusk): 00:00:00
FS[10:10] Flight Time (Night): 00:00:00
FS[10:10] Total Landings: 4
FS[10:10] MaxSim Rate: 0x
FS[10:10] Cigar Box - 1.1.4.0
FS[10:10] ----- Flight Closed -----

Route Map